sensor_id;sensor_type;location;lat;lon;timestamp;pressure;altitude;pressure_sealevel;temperature;humidity
19795;BME280;10057;59.402;17.866;2023-02-03T00:00:04;101354.69;;;-6.28;71.22
19795;BME280;10057;59.402;17.866;2023-02-03T00:02:38;101344.94;;;-6.35;71.74
19795;BME280;10057;59.402;17.866;2023-02-03T00:05:05;101352.38;;;-6.42;71.93
19795;BME280;10057;59.402;17.866;2023-02-03T00:07:32;101339.06;;;-6.52;71.42
19795;BME280;10057;59.402;17.866;2023-02-03T00:10:00;101329.50;;;-6.54;72.14
19795;BME280;10057;59.402;17.866;2023-02-03T00:12:28;101322.38;;;-6.60;71.63
19795;BME280;10057;59.402;17.866;2023-02-03T00:14:54;101322.19;;;-6.64;71.89
19795;BME280;10057;59.402;17.866;2023-02-03T00:17:21;101310.94;;;-6.66;72.11
19795;BME280;10057;59.402;17.866;2023-02-03T00:19:48;101307.31;;;-6.70;71.46
19795;BME280;10057;59.402;17.866;2023-02-03T00:22:20;101307.97;;;-6.76;71.87
19795;BME280;10057;59.402;17.866;2023-02-03T00:24:50;101303.63;;;-6.77;72.33
19795;BME280;10057;59.402;17.866;2023-02-03T00:27:16;101301.16;;;-6.74;72.07
19795;BME280;10057;59.402;17.866;2023-02-03T00:29:43;101300.41;;;-6.71;72.29
19795;BME280;10057;59.402;17.866;2023-02-03T00:32:10;101294.31;;;-6.73;72.26
19795;BME280;10057;59.402;17.866;2023-02-03T00:34:37;101289.16;;;-6.73;71.42
19795;BME280;10057;59.402;17.866;2023-02-03T00:37:03;101275.28;;;-6.75;71.95
19795;BME280;10057;59.402;17.866;2023-02-03T00:39:30;101278.84;;;-6.73;72.49
19795;BME280;10057;59.402;17.866;2023-02-03T00:41:57;101285.56;;;-6.77;71.36
19795;BME280;10057;59.402;17.866;2023-02-03T00:44:24;101282.06;;;-6.77;72.43
19795;BME280;10057;59.402;17.866;2023-02-03T00:46:50;101272.53;;;-6.80;72.51
19795;BME280;10057;59.402;17.866;2023-02-03T00:49:17;101262.97;;;-6.82;71.73
19795;BME280;10057;59.402;17.866;2023-02-03T00:51:44;101261.00;;;-6.88;72.38
19795;BME280;10057;59.402;17.866;2023-02-03T00:54:10;101249.75;;;-6.90;72.17
19795;BME280;10057;59.402;17.866;2023-02-03T00:56:39;101247.16;;;-6.90;71.56
19795;BME280;10057;59.402;17.866;2023-02-03T00:59:08;101246.91;;;-6.96;72.24
19795;BME280;10057;59.402;17.866;2023-02-03T01:01:35;101239.03;;;-6.99;72.11
19795;BME280;10057;59.402;17.866;2023-02-03T01:04:05;101242.44;;;-7.00;71.83
19795;BME280;10057;59.402;17.866;2023-02-03T01:06:32;101241.47;;;-7.02;71.89
19795;BME280;10057;59.402;17.866;2023-02-03T01:09:03;101237.03;;;-7.06;72.40
19795;BME280;10057;59.402;17.866;2023-02-03T01:11:31;101239.34;;;-7.12;72.11
19795;BME280;10057;59.402;17.866;2023-02-03T01:13:58;101227.81;;;-7.21;71.71
19795;BME280;10057;59.402;17.866;2023-02-03T01:16:28;101226.59;;;-7.29;72.46
19795;BME280;10057;59.402;17.866;2023-02-03T01:18:56;101230.56;;;-7.37;72.23
19795;BME280;10057;59.402;17.866;2023-02-03T01:21:24;101235.03;;;-7.33;72.38
19795;BME280;10057;59.402;17.866;2023-02-03T01:23:52;101235.09;;;-7.31;72.51
19795;BME280;10057;59.402;17.866;2023-02-03T01:26:21;101241.94;;;-7.32;71.53
19795;BME280;10057;59.402;17.866;2023-02-03T01:28:56;101235.97;;;-7.31;72.16
19795;BME280;10057;59.402;17.866;2023-02-03T01:31:33;101225.66;;;-7.31;72.32
19795;BME280;10057;59.402;17.866;2023-02-03T01:34:01;101221.31;;;-7.32;71.43
19795;BME280;10057;59.402;17.866;2023-02-03T01:36:30;101220.50;;;-7.31;71.61
19795;BME280;10057;59.402;17.866;2023-02-03T01:38:57;101217.84;;;-7.32;72.25
19795;BME280;10057;59.402;17.866;2023-02-03T01:41:30;101215.28;;;-7.32;71.75
19795;BME280;10057;59.402;17.866;2023-02-03T01:43:59;101221.38;;;-7.30;72.20
19795;BME280;10057;59.402;17.866;2023-02-03T01:46:37;101203.91;;;-7.37;71.84
19795;BME280;10057;59.402;17.866;2023-02-03T01:49:13;101204.50;;;-7.43;72.19
19795;BME280;10057;59.402;17.866;2023-02-03T01:51:48;101197.59;;;-7.44;71.81
19795;BME280;10057;59.402;17.866;2023-02-03T01:54:20;101195.84;;;-7.45;71.94
19795;BME280;10057;59.402;17.866;2023-02-03T01:56:54;101191.63;;;-7.43;71.89
19795;BME280;10057;59.402;17.866;2023-02-03T01:59:23;101196.84;;;-7.42;72.27
19795;BME280;10057;59.402;17.866;2023-02-03T02:01:52;101199.22;;;-7.46;72.11
19795;BME280;10057;59.402;17.866;2023-02-03T02:04:19;101190.34;;;-7.53;71.73
19795;BME280;10057;59.402;17.866;2023-02-03T02:06:49;101193.78;;;-7.52;72.11
19795;BME280;10057;59.402;17.866;2023-02-03T02:09:17;101187.03;;;-7.50;72.35
19795;BME280;10057;59.402;17.866;2023-02-03T02:11:44;101192.19;;;-7.50;72.27
19795;BME280;10057;59.402;17.866;2023-02-03T02:14:10;101186.97;;;-7.52;72.04
19795;BME280;10057;59.402;17.866;2023-02-03T02:17:02;101191.44;;;-7.48;72.20
19795;BME280;10057;59.402;17.866;2023-02-03T02:19:52;101186.28;;;-7.48;72.27
19795;BME280;10057;59.402;17.866;2023-02-03T02:23:04;101185.41;;;-7.48;71.43
19795;BME280;10057;59.402;17.866;2023-02-03T02:34:06;101161.72;;;-7.59;71.69
19795;BME280;10057;59.402;17.866;2023-02-03T02:41:58;101163.28;;;-7.63;71.65
19795;BME280;10057;59.402;17.866;2023-02-03T02:44:34;101166.00;;;-7.59;71.22
19795;BME280;10057;59.402;17.866;2023-02-03T02:47:17;101152.78;;;-7.67;71.59
19795;BME280;10057;59.402;17.866;2023-02-03T02:49:59;101147.47;;;-7.72;72.02
19795;BME280;10057;59.402;17.866;2023-02-03T02:52:31;101149.03;;;-7.75;71.32
19795;BME280;10057;59.402;17.866;2023-02-03T02:55:04;101144.06;;;-7.71;71.07
19795;BME280;10057;59.402;17.866;2023-02-03T02:57:34;101145.00;;;-7.69;71.77
19795;BME280;10057;59.402;17.866;2023-02-03T03:00:03;101138.22;;;-7.67;71.54
19795;BME280;10057;59.402;17.866;2023-02-03T03:02:34;101136.47;;;-7.68;71.55
19795;BME280;10057;59.402;17.866;2023-02-03T03:05:07;101136.59;;;-7.65;71.25
19795;BME280;10057;59.402;17.866;2023-02-03T03:07:42;101137.41;;;-7.66;71.46
19795;BME280;10057;59.402;17.866;2023-02-03T03:10:12;101133.94;;;-7.66;71.79
19795;BME280;10057;59.402;17.866;2023-02-03T03:12:48;101130.34;;;-7.70;71.58
19795;BME280;10057;59.402;17.866;2023-02-03T03:15:20;101132.78;;;-7.73;71.26
19795;BME280;10057;59.402;17.866;2023-02-03T03:18:00;101126.72;;;-7.75;71.51
19795;BME280;10057;59.402;17.866;2023-02-03T03:20:31;101126.75;;;-7.73;71.14
19795;BME280;10057;59.402;17.866;2023-02-03T03:23:05;101120.72;;;-7.74;71.33
19795;BME280;10057;59.402;17.866;2023-02-03T03:25:39;101119.81;;;-7.76;71.30
19795;BME280;10057;59.402;17.866;2023-02-03T03:28:16;101129.16;;;-7.78;71.15
19795;BME280;10057;59.402;17.866;2023-02-03T03:30:46;101107.25;;;-7.88;71.80
19795;BME280;10057;59.402;17.866;2023-02-03T03:33:13;101099.41;;;-7.91;71.36
19795;BME280;10057;59.402;17.866;2023-02-03T03:35:45;101097.69;;;-7.90;71.30
19795;BME280;10057;59.402;17.866;2023-02-03T03:38:25;101101.97;;;-7.91;71.25
19795;BME280;10057;59.402;17.866;2023-02-03T03:41:35;101091.81;;;-7.88;71.12
19795;BME280;10057;59.402;17.866;2023-02-03T03:44:09;101096.81;;;-7.91;71.13
19795;BME280;10057;59.402;17.866;2023-02-03T03:47:22;101107.00;;;-7.94;71.29
19795;BME280;10057;59.402;17.866;2023-02-03T03:49:50;101095.69;;;-7.97;71.77
19795;BME280;10057;59.402;17.866;2023-02-03T03:52:23;101094.81;;;-7.98;71.57
19795;BME280;10057;59.402;17.866;2023-02-03T03:54:52;101096.56;;;-7.97;71.34
19795;BME280;10057;59.402;17.866;2023-02-03T04:00:20;101097.69;;;-7.90;71.27
19795;BME280;10057;59.402;17.866;2023-02-03T04:02:51;101102.59;;;-7.96;71.53
19795;BME280;10057;59.402;17.866;2023-02-03T04:05:20;101094.53;;;-8.04;71.80
19795;BME280;10057;59.402;17.866;2023-02-03T04:07:47;101099.50;;;-8.08;71.54
19795;BME280;10057;59.402;17.866;2023-02-03T04:10:30;101095.56;;;-8.20;71.33
19795;BME280;10057;59.402;17.866;2023-02-03T04:12:57;101092.72;;;-8.26;71.38
19795;BME280;10057;59.402;17.866;2023-02-03T04:15:24;101094.56;;;-8.23;71.62
19795;BME280;10057;59.402;17.866;2023-02-03T04:17:50;101096.38;;;-8.21;72.02
19795;BME280;10057;59.402;17.866;2023-02-03T04:20:17;101084.91;;;-8.27;71.91
19795;BME280;10057;59.402;17.866;2023-02-03T04:22:44;101085.41;;;-8.36;72.00
19795;BME280;10057;59.402;17.866;2023-02-03T04:25:11;101085.31;;;-8.39;71.67
19795;BME280;10057;59.402;17.866;2023-02-03T04:27:38;101082.78;;;-8.38;72.36
19795;BME280;10057;59.402;17.866;2023-02-03T04:30:05;101080.16;;;-8.39;72.32
19795;BME280;10057;59.402;17.866;2023-02-03T04:32:32;101081.75;;;-8.41;71.83
19795;BME280;10057;59.402;17.866;2023-02-03T04:35:02;101077.28;;;-8.45;72.28
19795;BME280;10057;59.402;17.866;2023-02-03T04:37:29;101072.38;;;-8.41;72.39
19795;BME280;10057;59.402;17.866;2023-02-03T04:39:56;101063.94;;;-8.37;72.20
19795;BME280;10057;59.402;17.866;2023-02-03T04:42:24;101065.88;;;-8.31;72.75
19795;BME280;10057;59.402;17.866;2023-02-03T04:44:51;101063.59;;;-8.25;72.61
19795;BME280;10057;59.402;17.866;2023-02-03T04:47:18;101061.28;;;-8.19;72.20
19795;BME280;10057;59.402;17.866;2023-02-03T04:49:45;101064.91;;;-8.14;72.45
19795;BME280;10057;59.402;17.866;2023-02-03T04:52:13;101059.16;;;-8.08;72.09
19795;BME280;10057;59.402;17.866;2023-02-03T04:54:40;101060.91;;;-8.07;72.04
19795;BME280;10057;59.402;17.866;2023-02-03T04:57:07;101048.00;;;-8.08;72.14
19795;BME280;10057;59.402;17.866;2023-02-03T04:59:34;101043.56;;;-8.11;71.46
19795;BME280;10057;59.402;17.866;2023-02-03T05:02:01;101042.66;;;-8.13;71.79
19795;BME280;10057;59.402;17.866;2023-02-03T05:04:30;101040.00;;;-8.15;71.57
19795;BME280;10057;59.402;17.866;2023-02-03T05:06:57;101036.59;;;-8.14;71.35
19795;BME280;10057;59.402;17.866;2023-02-03T05:09:24;101027.19;;;-8.13;71.57
19795;BME280;10057;59.402;17.866;2023-02-03T05:11:51;101017.91;;;-8.09;71.74
19795;BME280;10057;59.402;17.866;2023-02-03T05:14:18;101021.41;;;-8.07;71.96
19795;BME280;10057;59.402;17.866;2023-02-03T05:16:45;101025.56;;;-8.11;71.55
19795;BME280;10057;59.402;17.866;2023-02-03T05:19:12;101029.66;;;-8.16;71.46
19795;BME280;10057;59.402;17.866;2023-02-03T05:21:39;101013.25;;;-8.18;72.04
19795;BME280;10057;59.402;17.866;2023-02-03T05:24:06;101015.91;;;-8.17;72.36
19795;BME280;10057;59.402;17.866;2023-02-03T05:26:34;101011.75;;;-8.13;72.44
19795;BME280;10057;59.402;17.866;2023-02-03T05:29:02;101002.47;;;-8.09;71.85
19795;BME280;10057;59.402;17.866;2023-02-03T05:31:28;100999.06;;;-8.08;72.25
19795;BME280;10057;59.402;17.866;2023-02-03T05:33:55;101000.81;;;-8.07;71.92
19795;BME280;10057;59.402;17.866;2023-02-03T05:36:22;100989.50;;;-8.11;71.82
19795;BME280;10057;59.402;17.866;2023-02-03T05:38:49;100985.22;;;-8.11;72.19
19795;BME280;10057;59.402;17.866;2023-02-03T05:41:15;100991.34;;;-8.08;72.30
19795;BME280;10057;59.402;17.866;2023-02-03T05:44:01;100987.00;;;-8.09;71.67
19795;BME280;10057;59.402;17.866;2023-02-03T05:46:28;100978.34;;;-8.12;72.01
19795;BME280;10057;59.402;17.866;2023-02-03T05:48:54;100988.63;;;-8.12;72.26
19795;BME280;10057;59.402;17.866;2023-02-03T05:51:21;100987.06;;;-8.08;71.70
19795;BME280;10057;59.402;17.866;2023-02-03T05:53:48;100980.34;;;-8.04;71.75
19795;BME280;10057;59.402;17.866;2023-02-03T05:56:15;100983.88;;;-8.02;71.97
19795;BME280;10057;59.402;17.866;2023-02-03T05:58:41;100980.34;;;-8.04;72.28
19795;BME280;10057;59.402;17.866;2023-02-03T06:01:08;100977.72;;;-8.06;72.29
19795;BME280;10057;59.402;17.866;2023-02-03T06:03:37;100978.72;;;-8.02;71.68
19795;BME280;10057;59.402;17.866;2023-02-03T06:06:04;100966.78;;;-8.00;72.49
19795;BME280;10057;59.402;17.866;2023-02-03T06:08:30;100967.84;;;-7.95;72.09
19795;BME280;10057;59.402;17.866;2023-02-03T06:10:58;100977.41;;;-7.93;72.32
19795;BME280;10057;59.402;17.866;2023-02-03T06:13:27;100968.03;;;-7.91;72.17
19795;BME280;10057;59.402;17.866;2023-02-03T06:15:54;100965.41;;;-7.92;71.61
19795;BME280;10057;59.402;17.866;2023-02-03T06:18:21;100966.16;;;-7.95;72.10
19795;BME280;10057;59.402;17.866;2023-02-03T06:20:49;100959.31;;;-7.94;71.52
19795;BME280;10057;59.402;17.866;2023-02-03T06:23:16;100964.44;;;-7.94;71.83
19795;BME280;10057;59.402;17.866;2023-02-03T06:25:47;100959.31;;;-7.94;72.29
19795;BME280;10057;59.402;17.866;2023-02-03T06:28:14;100965.41;;;-7.92;72.46
19795;BME280;10057;59.402;17.866;2023-02-03T06:30:42;100968.78;;;-7.93;71.75
19795;BME280;10057;59.402;17.866;2023-02-03T06:33:09;100972.31;;;-7.91;71.85
19795;BME280;10057;59.402;17.866;2023-02-03T06:35:36;100977.47;;;-7.91;72.09
19795;BME280;10057;59.402;17.866;2023-02-03T06:38:02;100982.63;;;-7.91;71.67
19795;BME280;10057;59.402;17.866;2023-02-03T06:40:29;100986.75;;;-7.95;72.05
19795;BME280;10057;59.402;17.866;2023-02-03T06:42:56;100980.72;;;-7.95;71.97
19795;BME280;10057;59.402;17.866;2023-02-03T06:45:23;100983.31;;;-7.95;71.82
19795;BME280;10057;59.402;17.866;2023-02-03T06:47:50;100978.16;;;-7.95;72.39
19795;BME280;10057;59.402;17.866;2023-02-03T06:50:17;100986.75;;;-7.95;71.93
19795;BME280;10057;59.402;17.866;2023-02-03T06:52:45;100980.00;;;-7.93;71.81
19795;BME280;10057;59.402;17.866;2023-02-03T06:55:11;100980.13;;;-7.90;71.77
19795;BME280;10057;59.402;17.866;2023-02-03T06:57:43;100983.47;;;-7.91;71.95
19795;BME280;10057;59.402;17.866;2023-02-03T07:00:10;100980.13;;;-7.90;72.25
19795;BME280;10057;59.402;17.866;2023-02-03T07:02:41;100986.16;;;-7.89;72.26
19795;BME280;10057;59.402;17.866;2023-02-03T07:05:08;100995.63;;;-7.88;72.44
19795;BME280;10057;59.402;17.866;2023-02-03T07:07:35;101000.81;;;-7.87;71.55
19795;BME280;10057;59.402;17.866;2023-02-03T07:10:05;101004.31;;;-7.86;71.62
19795;BME280;10057;59.402;17.866;2023-02-03T07:12:32;101002.66;;;-7.84;72.08
19795;BME280;10057;59.402;17.866;2023-02-03T07:14:59;101008.75;;;-7.82;72.43
19795;BME280;10057;59.402;17.866;2023-02-03T07:17:25;101001.94;;;-7.80;72.10
19795;BME280;10057;59.402;17.866;2023-02-03T07:19:52;100997.75;;;-7.78;72.59
19795;BME280;10057;59.402;17.866;2023-02-03T07:22:19;101006.34;;;-7.77;71.72
19795;BME280;10057;59.402;17.866;2023-02-03T07:24:46;101002.09;;;-7.77;71.71
19795;BME280;10057;59.402;17.866;2023-02-03T07:27:12;101005.63;;;-7.75;72.04
19795;BME280;10057;59.402;17.866;2023-02-03T07:29:39;101002.97;;;-7.76;71.83
19795;BME280;10057;59.402;17.866;2023-02-03T07:32:06;101005.63;;;-7.75;71.56
19795;BME280;10057;59.402;17.866;2023-02-03T07:34:33;101004.09;;;-7.70;72.49
19795;BME280;10057;59.402;17.866;2023-02-03T07:36:59;101000.72;;;-7.69;72.10
19795;BME280;10057;59.402;17.866;2023-02-03T07:39:26;100999.94;;;-7.66;72.04
19795;BME280;10057;59.402;17.866;2023-02-03T07:41:53;101000.94;;;-7.63;71.90
19795;BME280;10057;59.402;17.866;2023-02-03T07:44:19;100994.13;;;-7.62;72.31
19795;BME280;10057;59.402;17.866;2023-02-03T07:46:46;100996.75;;;-7.60;72.83
19795;BME280;10057;59.402;17.866;2023-02-03T07:49:13;100997.69;;;-7.58;72.65
19795;BME280;10057;59.402;17.866;2023-02-03T07:51:40;100992.59;;;-7.57;72.44
19795;BME280;10057;59.402;17.866;2023-02-03T07:54:07;100997.03;;;-7.53;72.08
19795;BME280;10057;59.402;17.866;2023-02-03T07:56:34;100994.53;;;-7.51;72.90
19795;BME280;10057;59.402;17.866;2023-02-03T07:59:01;100998.03;;;-7.49;72.78
19795;BME280;10057;59.402;17.866;2023-02-03T08:01:28;100996.47;;;-7.46;73.01
19795;BME280;10057;59.402;17.866;2023-02-03T08:03:54;100996.53;;;-7.44;72.72
19795;BME280;10057;59.402;17.866;2023-02-03T08:06:21;100995.66;;;-7.45;72.23
19795;BME280;10057;59.402;17.866;2023-02-03T08:08:48;101000.03;;;-7.42;72.75
19795;BME280;10057;59.402;17.866;2023-02-03T08:11:15;100997.59;;;-7.39;72.47
19795;BME280;10057;59.402;17.866;2023-02-03T08:13:42;101003.59;;;-7.39;72.26
19795;BME280;10057;59.402;17.866;2023-02-03T08:16:09;100993.38;;;-7.37;72.45
19795;BME280;10057;59.402;17.866;2023-02-03T08:18:35;100999.53;;;-7.33;72.87
19795;BME280;10057;59.402;17.866;2023-02-03T08:21:02;101001.47;;;-7.28;73.29
19795;BME280;10057;59.402;17.866;2023-02-03T08:23:30;101000.78;;;-7.24;73.36
19795;BME280;10057;59.402;17.866;2023-02-03T08:25:57;101004.28;;;-7.22;72.19
19795;BME280;10057;59.402;17.866;2023-02-03T08:28:24;101006.97;;;-7.19;73.28
19795;BME280;10057;59.402;17.866;2023-02-03T08:30:50;101008.91;;;-7.13;72.97
19795;BME280;10057;59.402;17.866;2023-02-03T08:33:17;101002.06;;;-7.12;72.58
19795;BME280;10057;59.402;17.866;2023-02-03T08:35:46;101003.88;;;-7.10;72.80
19795;BME280;10057;59.402;17.866;2023-02-03T08:38:13;101003.00;;;-7.10;73.08
19795;BME280;10057;59.402;17.866;2023-02-03T08:40:40;101011.63;;;-7.10;72.93
19795;BME280;10057;59.402;17.866;2023-02-03T08:43:07;101014.38;;;-7.05;72.63
19795;BME280;10057;59.402;17.866;2023-02-03T08:45:33;101017.81;;;-7.05;72.59
19795;BME280;10057;59.402;17.866;2023-02-03T08:48:00;101017.91;;;-7.03;72.53
19795;BME280;10057;59.402;17.866;2023-02-03T08:50:27;101018.81;;;-7.01;73.16
19795;BME280;10057;59.402;17.866;2023-02-03T08:52:54;101020.72;;;-6.97;73.18
19795;BME280;10057;59.402;17.866;2023-02-03T08:55:21;101014.84;;;-6.93;73.25
19795;BME280;10057;59.402;17.866;2023-02-03T08:57:48;101015.09;;;-6.87;73.06
19795;BME280;10057;59.402;17.866;2023-02-03T09:00:15;101011.78;;;-6.83;73.19
19795;BME280;10057;59.402;17.866;2023-02-03T09:02:42;101009.31;;;-6.80;72.40
19795;BME280;10057;59.402;17.866;2023-02-03T09:05:09;101017.25;;;-6.74;73.09
19795;BME280;10057;59.402;17.866;2023-02-03T09:07:36;101014.00;;;-6.70;73.38
19795;BME280;10057;59.402;17.866;2023-02-03T09:10:03;101014.16;;;-6.65;73.45
19795;BME280;10057;59.402;17.866;2023-02-03T09:12:29;101011.75;;;-6.60;73.57
19795;BME280;10057;59.402;17.866;2023-02-03T09:14:56;101012.72;;;-6.57;72.76
19795;BME280;10057;59.402;17.866;2023-02-03T09:17:23;101005.16;;;-6.52;72.85
19795;BME280;10057;59.402;17.866;2023-02-03T09:19:50;101003.72;;;-6.44;73.45
19795;BME280;10057;59.402;17.866;2023-02-03T09:22:16;101000.53;;;-6.37;73.45
19795;BME280;10057;59.402;17.866;2023-02-03T09:24:43;101012.06;;;-6.27;73.16
19795;BME280;10057;59.402;17.866;2023-02-03T09:27:10;101011.47;;;-6.20;73.42
19795;BME280;10057;59.402;17.866;2023-02-03T09:29:37;101023.00;;;-6.10;73.42
19795;BME280;10057;59.402;17.866;2023-02-03T09:32:04;101027.66;;;-6.00;73.94
19795;BME280;10057;59.402;17.866;2023-02-03T09:34:34;101027.22;;;-5.87;73.92
19795;BME280;10057;59.402;17.866;2023-02-03T09:37:01;101037.13;;;-5.74;73.92
19795;BME280;10057;59.402;17.866;2023-02-03T09:39:30;101035.88;;;-5.59;73.39
19795;BME280;10057;59.402;17.866;2023-02-03T09:44:46;101040.47;;;-5.24;73.96
19795;BME280;10057;59.402;17.866;2023-02-03T09:47:26;101042.81;;;-5.04;74.20
19795;BME280;10057;59.402;17.866;2023-02-03T09:50:03;101043.31;;;-4.87;74.08
19795;BME280;10057;59.402;17.866;2023-02-03T09:52:36;101052.59;;;-4.65;74.12
19795;BME280;10057;59.402;17.866;2023-02-03T09:58:00;101063.13;;;-4.31;74.08
19795;BME280;10057;59.402;17.866;2023-02-03T10:00:33;101070.25;;;-4.22;74.20
19795;BME280;10057;59.402;17.866;2023-02-03T10:08:50;101055.66;;;-3.87;74.02
19795;BME280;10057;59.402;17.866;2023-02-03T10:14:08;101068.34;;;-3.64;73.89
19795;BME280;10057;59.402;17.866;2023-02-03T10:19:16;101058.34;;;-3.49;74.18
19795;BME280;10057;59.402;17.866;2023-02-03T10:21:50;101067.22;;;-3.41;73.83
19795;BME280;10057;59.402;17.866;2023-02-03T10:24:23;101061.34;;;-3.34;74.21
19795;BME280;10057;59.402;17.866;2023-02-03T10:26:52;101069.28;;;-3.26;74.38
19795;BME280;10057;59.402;17.866;2023-02-03T10:29:27;101065.09;;;-3.21;73.61
19795;BME280;10057;59.402;17.866;2023-02-03T10:31:58;101062.59;;;-3.18;73.86
19795;BME280;10057;59.402;17.866;2023-02-03T10:34:25;101062.72;;;-3.12;74.26
19795;BME280;10057;59.402;17.866;2023-02-03T10:36:58;101059.38;;;-3.07;74.12
19795;BME280;10057;59.402;17.866;2023-02-03T10:39:31;101062.13;;;-3.00;73.93
19795;BME280;10057;59.402;17.866;2023-02-03T10:42:03;101071.75;;;-2.96;74.04
19795;BME280;10057;59.402;17.866;2023-02-03T10:44:37;101061.44;;;-2.91;73.59
19795;BME280;10057;59.402;17.866;2023-02-03T10:47:31;101063.31;;;-2.87;74.06
19795;BME280;10057;59.402;17.866;2023-02-03T10:50:27;101072.13;;;-2.79;74.44
19795;BME280;10057;59.402;17.866;2023-02-03T10:53:20;101072.28;;;-2.71;74.35
19795;BME280;10057;59.402;17.866;2023-02-03T10:56:09;101069.81;;;-2.67;73.67
19795;BME280;10057;59.402;17.866;2023-02-03T10:58:38;101064.63;;;-2.65;73.73
19795;BME280;10057;59.402;17.866;2023-02-03T11:01:14;101074.31;;;-2.58;73.85
19795;BME280;10057;59.402;17.866;2023-02-03T11:03:43;101067.53;;;-2.50;74.09
19795;BME280;10057;59.402;17.866;2023-02-03T11:06:13;101066.84;;;-2.43;73.57
19795;BME280;10057;59.402;17.866;2023-02-03T11:08:43;101058.34;;;-2.35;73.78
19795;BME280;10057;59.402;17.866;2023-02-03T11:11:30;101064.50;;;-2.30;73.61
19795;BME280;10057;59.402;17.866;2023-02-03T11:16:33;101071.47;;;-2.28;73.75
19795;BME280;10057;59.402;17.866;2023-02-03T11:19:03;101065.47;;;-2.25;73.84
19795;BME280;10057;59.402;17.866;2023-02-03T11:24:10;101064.75;;;-2.18;74.00
19795;BME280;10057;59.402;17.866;2023-02-03T11:26:45;101064.81;;;-2.15;73.87
19795;BME280;10057;59.402;17.866;2023-02-03T11:29:17;101073.63;;;-2.08;74.19
19795;BME280;10057;59.402;17.866;2023-02-03T11:31:47;101067.56;;;-2.06;73.69
19795;BME280;10057;59.402;17.866;2023-02-03T11:34:20;101078.03;;;-2.03;73.91
19795;BME280;10057;59.402;17.866;2023-02-03T11:36:49;101076.41;;;-1.98;73.83
19795;BME280;10057;59.402;17.866;2023-02-03T11:41:44;101075.81;;;-1.84;74.32
19795;BME280;10057;59.402;17.866;2023-02-03T11:44:16;101074.19;;;-1.78;74.16
19795;BME280;10057;59.402;17.866;2023-02-03T11:46:46;101082.13;;;-1.70;73.62
19795;BME280;10057;59.402;17.866;2023-02-03T12:00:46;101105.47;;;-1.23;74.13
19795;BME280;10057;59.402;17.866;2023-02-03T12:03:29;101102.16;;;-1.14;73.64
19795;BME280;10057;59.402;17.866;2023-02-03T12:06:18;101104.06;;;-1.06;74.14
19795;BME280;10057;59.402;17.866;2023-02-03T12:09:21;101105.88;;;-1.00;73.57
19795;BME280;10057;59.402;17.866;2023-02-03T12:14:51;101118.13;;;-0.93;73.80
19795;BME280;10057;59.402;17.866;2023-02-03T12:17:44;101119.97;;;-0.89;73.41
19795;BME280;10057;59.402;17.866;2023-02-03T12:23:08;101130.44;;;-0.83;73.75
19795;BME280;10057;59.402;17.866;2023-02-03T12:34:34;101157.53;;;-0.73;73.53
19795;BME280;10057;59.402;17.866;2023-02-03T12:37:14;101163.66;;;-0.71;73.49
19795;BME280;10057;59.402;17.866;2023-02-03T12:39:47;101160.19;;;-0.68;73.38
19795;BME280;10057;59.402;17.866;2023-02-03T12:45:05;101168.97;;;-0.65;73.29
19795;BME280;10057;59.402;17.866;2023-02-03T12:47:40;101177.66;;;-0.63;73.47
19795;BME280;10057;59.402;17.866;2023-02-03T12:53:01;101176.81;;;-0.62;73.25
19795;BME280;10057;59.402;17.866;2023-02-03T12:55:38;101187.25;;;-0.60;73.46
19795;BME280;10057;59.402;17.866;2023-02-03T12:58:12;101192.47;;;-0.60;73.56
19795;BME280;10057;59.402;17.866;2023-02-03T13:00:57;101215.94;;;-0.59;73.55
19795;BME280;10057;59.402;17.866;2023-02-03T13:03:32;101216.81;;;-0.58;73.38
19795;BME280;10057;59.402;17.866;2023-02-03T13:06:14;101231.63;;;-0.57;73.51
19795;BME280;10057;59.402;17.866;2023-02-03T13:09:02;101231.63;;;-0.56;73.47
19795;BME280;10057;59.402;17.866;2023-02-03T13:12:26;101241.19;;;-0.58;73.46
19795;BME280;10057;59.402;17.866;2023-02-03T13:16:56;101257.66;;;-0.59;73.30
19795;BME280;10057;59.402;17.866;2023-02-03T13:19:26;101270.66;;;-0.60;73.54
19795;BME280;10057;59.402;17.866;2023-02-03T13:21:54;101281.97;;;-0.60;73.38
19795;BME280;10057;59.402;17.866;2023-02-03T13:24:25;101279.34;;;-0.61;73.52
19795;BME280;10057;59.402;17.866;2023-02-03T13:26:59;101288.06;;;-0.59;73.28
19795;BME280;10057;59.402;17.866;2023-02-03T13:35:02;101311.44;;;-0.64;73.37
19795;BME280;10057;59.402;17.866;2023-02-03T13:40:51;101316.59;;;-0.65;73.36
19795;BME280;10057;59.402;17.866;2023-02-03T13:43:28;101322.63;;;-0.69;73.48
19795;BME280;10057;59.402;17.866;2023-02-03T13:46:05;101332.19;;;-0.70;73.33
19795;BME280;10057;59.402;17.866;2023-02-03T13:48:35;101334.75;;;-0.72;73.59
19795;BME280;10057;59.402;17.866;2023-02-03T13:51:03;101350.41;;;-0.72;73.51
19795;BME280;10057;59.402;17.866;2023-02-03T13:53:42;101356.50;;;-0.71;73.21
19795;BME280;10057;59.402;17.866;2023-02-03T13:56:23;101352.94;;;-0.75;73.50
19795;BME280;10057;59.402;17.866;2023-02-03T14:04:53;101375.41;;;-0.81;73.32
19795;BME280;10057;59.402;17.866;2023-02-03T14:07:34;101374.47;;;-0.85;73.64
19795;BME280;10057;59.402;17.866;2023-02-03T14:10:14;101377.91;;;-0.86;73.28
19795;BME280;10057;59.402;17.866;2023-02-03T14:22:56;101397.63;;;-0.99;73.46
19795;BME280;10057;59.402;17.866;2023-02-03T14:25:24;101399.31;;;-1.01;73.62
19795;BME280;10057;59.402;17.866;2023-02-03T14:28:01;101413.16;;;-1.03;73.43
19795;BME280;10057;59.402;17.866;2023-02-03T14:30:29;101414.81;;;-1.07;73.34
19795;BME280;10057;59.402;17.866;2023-02-03T14:32:57;101420.81;;;-1.11;73.42
19795;BME280;10057;59.402;17.866;2023-02-03T14:35:32;101421.63;;;-1.13;73.99
19795;BME280;10057;59.402;17.866;2023-02-03T14:38:05;101428.47;;;-1.17;73.80